<?xml version="1.0" encoding="UTF-8" standalone="no" ?>
<gpx xmlns="http://www.topografix.com/GPX/1/1" xmlns:xsi="http://www.w3.org/2001/XMLSchema-instance" xsi:schemaLocation="http://www.topografix.com/GPX/1/1 http://www.topografix.com/GPX/1/1/gpx.xsd" version="1.1" creator="VisuGPX - https://www.visugpx.com">
  <metadata>
    <name>Grand tour du Mont Landard</name>
    <desc><![CDATA[Une randonnée dans la forêt du Mont Landard.
Un beau point de vue sur la vallée du Rhône. 
De nombreux chemins sont possibles pour raccourcir ce tour.  ]]></desc>
  </metadata>
  <trk>
    <name><![CDATA[Tour du Mont Landard-15631360]]></name>
    <trkseg>
      <trkpt lat="45.77705" lon="5.81479">
        <ele>385</ele>
        <time>2026-07-14T10:16:47Z</time>
      </trkpt>
      <trkpt lat="45.77659" lon="5.8147">
        <ele>387</ele>
        <time>2026-07-14T10:17:49Z</time>
      </trkpt>
      <trkpt lat="45.77604" lon="5.81456">
        <ele>387</ele>
        <time>2026-07-14T10:19:03Z</time>
      </trkpt>
      <trkpt lat="45.77598" lon="5.81442">
        <ele>387</ele>
        <time>2026-07-14T10:19:19Z</time>
      </trkpt>
      <trkpt lat="45.77555" lon="5.81372">
        <ele>388</ele>
        <time>2026-07-14T10:20:46Z</time>
      </trkpt>
      <trkpt lat="45.7753" lon="5.81346">
        <ele>389</ele>
        <time>2026-07-14T10:21:27Z</time>
      </trkpt>
      <trkpt lat="45.7753" lon="5.81334">
        <ele>389</ele>
        <time>2026-07-14T10:21:38Z</time>
      </trkpt>
      <trkpt lat="45.77518" lon="5.81285">
        <ele>392</ele>
        <time>2026-07-14T10:22:26Z</time>
      </trkpt>
      <trkpt lat="45.77518" lon="5.81263">
        <ele>393</ele>
        <time>2026-07-14T10:22:47Z</time>
      </trkpt>
      <trkpt lat="45.77534" lon="5.81196">
        <ele>400</ele>
        <time>2026-07-14T10:23:53Z</time>
      </trkpt>
      <trkpt lat="45.77535" lon="5.81121">
        <ele>408</ele>
        <time>2026-07-14T10:25:03Z</time>
      </trkpt>
      <trkpt lat="45.77546" lon="5.81083">
        <ele>413</ele>
        <time>2026-07-14T10:25:41Z</time>
      </trkpt>
      <trkpt lat="45.77541" lon="5.81054">
        <ele>414</ele>
        <time>2026-07-14T10:26:09Z</time>
      </trkpt>
      <trkpt lat="45.77524" lon="5.81051">
        <ele>415</ele>
        <time>2026-07-14T10:26:31Z</time>
      </trkpt>
      <trkpt lat="45.77513" lon="5.81055">
        <ele>415</ele>
        <time>2026-07-14T10:26:47Z</time>
      </trkpt>
      <trkpt lat="45.77463" lon="5.81035">
        <ele>417</ele>
        <time>2026-07-14T10:27:56Z</time>
      </trkpt>
      <trkpt lat="45.77443" lon="5.81023">
        <ele>418</ele>
        <time>2026-07-14T10:28:25Z</time>
      </trkpt>
      <trkpt lat="45.7739" lon="5.81009">
        <ele>422</ele>
        <time>2026-07-14T10:29:37Z</time>
      </trkpt>
      <trkpt lat="45.77364" lon="5.80998">
        <ele>424</ele>
        <time>2026-07-14T10:30:13Z</time>
      </trkpt>
      <trkpt lat="45.77344" lon="5.80965">
        <ele>428</ele>
        <time>2026-07-14T10:30:54Z</time>
      </trkpt>
      <trkpt lat="45.77341" lon="5.80949">
        <ele>429</ele>
        <time>2026-07-14T10:31:09Z</time>
      </trkpt>
      <trkpt lat="45.77345" lon="5.80886">
        <ele>431</ele>
        <time>2026-07-14T10:32:08Z</time>
      </trkpt>
      <trkpt lat="45.77359" lon="5.80779">
        <ele>423</ele>
        <time>2026-07-14T10:33:49Z</time>
      </trkpt>
      <trkpt lat="45.77342" lon="5.80758">
        <ele>420</ele>
        <time>2026-07-14T10:34:19Z</time>
      </trkpt>
      <trkpt lat="45.77342" lon="5.80742">
        <ele>417</ele>
        <time>2026-07-14T10:34:34Z</time>
      </trkpt>
      <trkpt lat="45.77341" lon="5.80736">
        <ele>417</ele>
        <time>2026-07-14T10:34:40Z</time>
      </trkpt>
      <trkpt lat="45.77338" lon="5.80725">
        <ele>415</ele>
        <time>2026-07-14T10:34:51Z</time>
      </trkpt>
      <trkpt lat="45.77328" lon="5.80704">
        <ele>411</ele>
        <time>2026-07-14T10:35:15Z</time>
      </trkpt>
      <trkpt lat="45.77323" lon="5.80679">
        <ele>407</ele>
        <time>2026-07-14T10:35:39Z</time>
      </trkpt>
      <trkpt lat="45.77319" lon="5.80671">
        <ele>406</ele>
        <time>2026-07-14T10:35:48Z</time>
      </trkpt>
      <trkpt lat="45.77316" lon="5.80671">
        <ele>405</ele>
        <time>2026-07-14T10:35:52Z</time>
      </trkpt>
      <trkpt lat="45.77311" lon="5.8064">
        <ele>403</ele>
        <time>2026-07-14T10:36:21Z</time>
      </trkpt>
      <trkpt lat="45.77302" lon="5.80602">
        <ele>401</ele>
        <time>2026-07-14T10:36:59Z</time>
      </trkpt>
      <trkpt lat="45.77299" lon="5.80594">
        <ele>400</ele>
        <time>2026-07-14T10:37:07Z</time>
      </trkpt>
      <trkpt lat="45.77302" lon="5.80602">
        <ele>401</ele>
        <time>2026-07-14T10:37:16Z</time>
      </trkpt>
      <trkpt lat="45.77306" lon="5.80588">
        <ele>401</ele>
        <time>2026-07-14T10:37:30Z</time>
      </trkpt>
      <trkpt lat="45.77309" lon="5.80551">
        <ele>402</ele>
        <time>2026-07-14T10:38:05Z</time>
      </trkpt>
      <trkpt lat="45.77308" lon="5.80532">
        <ele>403</ele>
        <time>2026-07-14T10:38:22Z</time>
      </trkpt>
      <trkpt lat="45.77305" lon="5.80506">
        <ele>403</ele>
        <time>2026-07-14T10:38:47Z</time>
      </trkpt>
      <trkpt lat="45.77282" lon="5.8044">
        <ele>408</ele>
        <time>2026-07-14T10:39:55Z</time>
      </trkpt>
      <trkpt lat="45.77167" lon="5.8033">
        <ele>407</ele>
        <time>2026-07-14T10:43:00Z</time>
      </trkpt>
      <trkpt lat="45.7713" lon="5.8028">
        <ele>413</ele>
        <time>2026-07-14T10:44:08Z</time>
      </trkpt>
      <trkpt lat="45.7711" lon="5.80262">
        <ele>416</ele>
        <time>2026-07-14T10:44:39Z</time>
      </trkpt>
      <trkpt lat="45.77069" lon="5.80242">
        <ele>418</ele>
        <time>2026-07-14T10:45:37Z</time>
      </trkpt>
      <trkpt lat="45.77003" lon="5.80219">
        <ele>418</ele>
        <time>2026-07-14T10:47:08Z</time>
      </trkpt>
      <trkpt lat="45.7696" lon="5.80208">
        <ele>419</ele>
        <time>2026-07-14T10:48:06Z</time>
      </trkpt>
      <trkpt lat="45.76954" lon="5.80221">
        <ele>418</ele>
        <time>2026-07-14T10:48:21Z</time>
      </trkpt>
      <trkpt lat="45.76942" lon="5.80248">
        <ele>417</ele>
        <time>2026-07-14T10:48:50Z</time>
      </trkpt>
      <trkpt lat="45.76924" lon="5.80271">
        <ele>414</ele>
        <time>2026-07-14T10:49:23Z</time>
      </trkpt>
      <trkpt lat="45.76842" lon="5.80309">
        <ele>408</ele>
        <time>2026-07-14T10:51:18Z</time>
      </trkpt>
      <trkpt lat="45.767" lon="5.80362">
        <ele>404</ele>
        <time>2026-07-14T10:54:33Z</time>
      </trkpt>
      <trkpt lat="45.76603" lon="5.80382">
        <ele>403</ele>
        <time>2026-07-14T10:56:44Z</time>
      </trkpt>
      <trkpt lat="45.76516" lon="5.80388">
        <ele>401</ele>
        <time>2026-07-14T10:58:40Z</time>
      </trkpt>
      <trkpt lat="45.76422" lon="5.80394">
        <ele>394</ele>
        <time>2026-07-14T11:00:46Z</time>
      </trkpt>
      <trkpt lat="45.76389" lon="5.80394">
        <ele>391</ele>
        <time>2026-07-14T11:01:30Z</time>
      </trkpt>
      <trkpt lat="45.7638" lon="5.80391">
        <ele>391</ele>
        <time>2026-07-14T11:01:42Z</time>
      </trkpt>
      <trkpt lat="45.76376" lon="5.80382">
        <ele>391</ele>
        <time>2026-07-14T11:01:52Z</time>
      </trkpt>
      <trkpt lat="45.76373" lon="5.80361">
        <ele>391</ele>
        <time>2026-07-14T11:02:12Z</time>
      </trkpt>
      <trkpt lat="45.76338" lon="5.80318">
        <ele>383</ele>
        <time>2026-07-14T11:03:14Z</time>
      </trkpt>
      <trkpt lat="45.76358" lon="5.80251">
        <ele>384</ele>
        <time>2026-07-14T11:04:22Z</time>
      </trkpt>
      <trkpt lat="45.76371" lon="5.80163">
        <ele>382</ele>
        <time>2026-07-14T11:05:45Z</time>
      </trkpt>
      <trkpt lat="45.76366" lon="5.80132">
        <ele>380</ele>
        <time>2026-07-14T11:06:15Z</time>
      </trkpt>
      <trkpt lat="45.76341" lon="5.80072">
        <ele>377</ele>
        <time>2026-07-14T11:07:20Z</time>
      </trkpt>
      <trkpt lat="45.76302" lon="5.80023">
        <ele>377</ele>
        <time>2026-07-14T11:08:29Z</time>
      </trkpt>
      <trkpt lat="45.76294" lon="5.80013">
        <ele>376</ele>
        <time>2026-07-14T11:08:43Z</time>
      </trkpt>
      <trkpt lat="45.76302" lon="5.80017">
        <ele>377</ele>
        <time>2026-07-14T11:08:55Z</time>
      </trkpt>
      <trkpt lat="45.76354" lon="5.80017">
        <ele>386</ele>
        <time>2026-07-14T11:10:04Z</time>
      </trkpt>
      <trkpt lat="45.76379" lon="5.80003">
        <ele>391</ele>
        <time>2026-07-14T11:10:40Z</time>
      </trkpt>
      <trkpt lat="45.76432" lon="5.79966">
        <ele>406</ele>
        <time>2026-07-14T11:11:58Z</time>
      </trkpt>
      <trkpt lat="45.76435" lon="5.79955">
        <ele>409</ele>
        <time>2026-07-14T11:12:09Z</time>
      </trkpt>
      <trkpt lat="45.76412" lon="5.79947">
        <ele>408</ele>
        <time>2026-07-14T11:12:41Z</time>
      </trkpt>
      <trkpt lat="45.76387" lon="5.79945">
        <ele>405</ele>
        <time>2026-07-14T11:13:14Z</time>
      </trkpt>
      <trkpt lat="45.7638" lon="5.79939">
        <ele>405</ele>
        <time>2026-07-14T11:13:25Z</time>
      </trkpt>
      <trkpt lat="45.76381" lon="5.79927">
        <ele>407</ele>
        <time>2026-07-14T11:13:37Z</time>
      </trkpt>
      <trkpt lat="45.7639" lon="5.79919">
        <ele>411</ele>
        <time>2026-07-14T11:13:51Z</time>
      </trkpt>
      <trkpt lat="45.76437" lon="5.79895">
        <ele>422</ele>
        <time>2026-07-14T11:14:57Z</time>
      </trkpt>
      <trkpt lat="45.76468" lon="5.79894">
        <ele>424</ele>
        <time>2026-07-14T11:15:39Z</time>
      </trkpt>
      <trkpt lat="45.76518" lon="5.79859">
        <ele>433</ele>
        <time>2026-07-14T11:16:53Z</time>
      </trkpt>
      <trkpt lat="45.76531" lon="5.79849">
        <ele>435</ele>
        <time>2026-07-14T11:17:13Z</time>
      </trkpt>
      <trkpt lat="45.76547" lon="5.79858">
        <ele>434</ele>
        <time>2026-07-14T11:17:36Z</time>
      </trkpt>
      <trkpt lat="45.76568" lon="5.79856">
        <ele>435</ele>
        <time>2026-07-14T11:18:04Z</time>
      </trkpt>
      <trkpt lat="45.76622" lon="5.79829">
        <ele>441</ele>
        <time>2026-07-14T11:19:20Z</time>
      </trkpt>
      <trkpt lat="45.76673" lon="5.79822">
        <ele>443</ele>
        <time>2026-07-14T11:20:28Z</time>
      </trkpt>
      <trkpt lat="45.76669" lon="5.7978">
        <ele>449</ele>
        <time>2026-07-14T11:21:08Z</time>
      </trkpt>
      <trkpt lat="45.76718" lon="5.7975">
        <ele>456</ele>
        <time>2026-07-14T11:22:19Z</time>
      </trkpt>
      <trkpt lat="45.76741" lon="5.79731">
        <ele>462</ele>
        <time>2026-07-14T11:22:54Z</time>
      </trkpt>
      <trkpt lat="45.76824" lon="5.79678">
        <ele>476</ele>
        <time>2026-07-14T11:24:56Z</time>
      </trkpt>
      <trkpt lat="45.76869" lon="5.79665">
        <ele>481</ele>
        <time>2026-07-14T11:25:57Z</time>
      </trkpt>
      <trkpt lat="45.76889" lon="5.79648">
        <ele>487</ele>
        <time>2026-07-14T11:26:28Z</time>
      </trkpt>
      <trkpt lat="45.769" lon="5.79642">
        <ele>489</ele>
        <time>2026-07-14T11:26:44Z</time>
      </trkpt>
      <trkpt lat="45.76915" lon="5.7964">
        <ele>490</ele>
        <time>2026-07-14T11:27:04Z</time>
      </trkpt>
      <trkpt lat="45.76945" lon="5.79643">
        <ele>493</ele>
        <time>2026-07-14T11:27:44Z</time>
      </trkpt>
      <trkpt lat="45.7713" lon="5.79665">
        <ele>514</ele>
        <time>2026-07-14T11:31:52Z</time>
      </trkpt>
      <trkpt lat="45.77209" lon="5.79632">
        <ele>526</ele>
        <time>2026-07-14T11:33:41Z</time>
      </trkpt>
      <trkpt lat="45.77234" lon="5.79627">
        <ele>528</ele>
        <time>2026-07-14T11:34:15Z</time>
      </trkpt>
      <trkpt lat="45.7728" lon="5.79596">
        <ele>535</ele>
        <time>2026-07-14T11:35:23Z</time>
      </trkpt>
      <trkpt lat="45.77311" lon="5.79579">
        <ele>540</ele>
        <time>2026-07-14T11:36:07Z</time>
      </trkpt>
      <trkpt lat="45.77338" lon="5.79571">
        <ele>544</ele>
        <time>2026-07-14T11:36:44Z</time>
      </trkpt>
      <trkpt lat="45.77352" lon="5.79569">
        <ele>545</ele>
        <time>2026-07-14T11:37:03Z</time>
      </trkpt>
      <trkpt lat="45.77385" lon="5.7957">
        <ele>546</ele>
        <time>2026-07-14T11:37:47Z</time>
      </trkpt>
      <trkpt lat="45.774" lon="5.79578">
        <ele>546</ele>
        <time>2026-07-14T11:38:08Z</time>
      </trkpt>
      <trkpt lat="45.7741" lon="5.79588">
        <ele>546</ele>
        <time>2026-07-14T11:38:24Z</time>
      </trkpt>
      <trkpt lat="45.77428" lon="5.79609">
        <ele>544</ele>
        <time>2026-07-14T11:38:55Z</time>
      </trkpt>
      <trkpt lat="45.77437" lon="5.79611">
        <ele>543</ele>
        <time>2026-07-14T11:39:08Z</time>
      </trkpt>
      <trkpt lat="45.77453" lon="5.79608">
        <ele>543</ele>
        <time>2026-07-14T11:39:29Z</time>
      </trkpt>
      <trkpt lat="45.77459" lon="5.79608">
        <ele>542</ele>
        <time>2026-07-14T11:39:37Z</time>
      </trkpt>
      <trkpt lat="45.77473" lon="5.79611">
        <ele>541</ele>
        <time>2026-07-14T11:39:56Z</time>
      </trkpt>
      <trkpt lat="45.77488" lon="5.7962">
        <ele>539</ele>
        <time>2026-07-14T11:40:18Z</time>
      </trkpt>
      <trkpt lat="45.77545" lon="5.79666">
        <ele>533</ele>
        <time>2026-07-14T11:41:45Z</time>
      </trkpt>
      <trkpt lat="45.7757" lon="5.7967">
        <ele>534</ele>
        <time>2026-07-14T11:42:19Z</time>
      </trkpt>
      <trkpt lat="45.77615" lon="5.7968">
        <ele>533</ele>
        <time>2026-07-14T11:43:19Z</time>
      </trkpt>
      <trkpt lat="45.77691" lon="5.79687">
        <ele>532</ele>
        <time>2026-07-14T11:45:01Z</time>
      </trkpt>
      <trkpt lat="45.77728" lon="5.79704">
        <ele>533</ele>
        <time>2026-07-14T11:45:53Z</time>
      </trkpt>
      <trkpt lat="45.77753" lon="5.79703">
        <ele>532</ele>
        <time>2026-07-14T11:46:26Z</time>
      </trkpt>
      <trkpt lat="45.77761" lon="5.79708">
        <ele>533</ele>
        <time>2026-07-14T11:46:38Z</time>
      </trkpt>
      <trkpt lat="45.77828" lon="5.79652">
        <ele>531</ele>
        <time>2026-07-14T11:48:21Z</time>
      </trkpt>
      <trkpt lat="45.77846" lon="5.7964">
        <ele>532</ele>
        <time>2026-07-14T11:48:48Z</time>
      </trkpt>
      <trkpt lat="45.7786" lon="5.79637">
        <ele>533</ele>
        <time>2026-07-14T11:49:07Z</time>
      </trkpt>
      <trkpt lat="45.77925" lon="5.79639">
        <ele>536</ele>
        <time>2026-07-14T11:50:33Z</time>
      </trkpt>
      <trkpt lat="45.77965" lon="5.79649">
        <ele>536</ele>
        <time>2026-07-14T11:51:28Z</time>
      </trkpt>
      <trkpt lat="45.77984" lon="5.79655">
        <ele>537</ele>
        <time>2026-07-14T11:51:54Z</time>
      </trkpt>
      <trkpt lat="45.78027" lon="5.79685">
        <ele>540</ele>
        <time>2026-07-14T11:52:57Z</time>
      </trkpt>
      <trkpt lat="45.78042" lon="5.79714">
        <ele>542</ele>
        <time>2026-07-14T11:53:31Z</time>
      </trkpt>
      <trkpt lat="45.7805" lon="5.79741">
        <ele>544</ele>
        <time>2026-07-14T11:53:58Z</time>
      </trkpt>
      <trkpt lat="45.78059" lon="5.7975">
        <ele>545</ele>
        <time>2026-07-14T11:54:13Z</time>
      </trkpt>
      <trkpt lat="45.78079" lon="5.79756">
        <ele>546</ele>
        <time>2026-07-14T11:54:40Z</time>
      </trkpt>
      <trkpt lat="45.78095" lon="5.79756">
        <ele>547</ele>
        <time>2026-07-14T11:55:02Z</time>
      </trkpt>
      <trkpt lat="45.78128" lon="5.79748">
        <ele>550</ele>
        <time>2026-07-14T11:55:46Z</time>
      </trkpt>
      <trkpt lat="45.78199" lon="5.79671">
        <ele>548</ele>
        <time>2026-07-14T11:57:45Z</time>
      </trkpt>
      <trkpt lat="45.7821" lon="5.79662">
        <ele>546</ele>
        <time>2026-07-14T11:58:02Z</time>
      </trkpt>
      <trkpt lat="45.78229" lon="5.79664">
        <ele>548</ele>
        <time>2026-07-14T11:58:27Z</time>
      </trkpt>
      <trkpt lat="45.78249" lon="5.7968">
        <ele>551</ele>
        <time>2026-07-14T11:58:58Z</time>
      </trkpt>
      <trkpt lat="45.78289" lon="5.79725">
        <ele>555</ele>
        <time>2026-07-14T12:00:06Z</time>
      </trkpt>
      <trkpt lat="45.78298" lon="5.79718">
        <ele>555</ele>
        <time>2026-07-14T12:00:19Z</time>
      </trkpt>
      <trkpt lat="45.78303" lon="5.79707">
        <ele>554</ele>
        <time>2026-07-14T12:00:32Z</time>
      </trkpt>
      <trkpt lat="45.78328" lon="5.7968">
        <ele>553</ele>
        <time>2026-07-14T12:01:13Z</time>
      </trkpt>
      <trkpt lat="45.78369" lon="5.79648">
        <ele>547</ele>
        <time>2026-07-14T12:02:16Z</time>
      </trkpt>
      <trkpt lat="45.78387" lon="5.79644">
        <ele>547</ele>
        <time>2026-07-14T12:02:40Z</time>
      </trkpt>
      <trkpt lat="45.78439" lon="5.79643">
        <ele>552</ele>
        <time>2026-07-14T12:03:49Z</time>
      </trkpt>
      <trkpt lat="45.78468" lon="5.79651">
        <ele>559</ele>
        <time>2026-07-14T12:04:29Z</time>
      </trkpt>
      <trkpt lat="45.78512" lon="5.7965">
        <ele>564</ele>
        <time>2026-07-14T12:05:27Z</time>
      </trkpt>
      <trkpt lat="45.7855" lon="5.79658">
        <ele>568</ele>
        <time>2026-07-14T12:06:19Z</time>
      </trkpt>
      <trkpt lat="45.78572" lon="5.79672">
        <ele>572</ele>
        <time>2026-07-14T12:06:51Z</time>
      </trkpt>
      <trkpt lat="45.78587" lon="5.79675">
        <ele>573</ele>
        <time>2026-07-14T12:07:11Z</time>
      </trkpt>
      <trkpt lat="45.78654" lon="5.79705">
        <ele>572</ele>
        <time>2026-07-14T12:08:45Z</time>
      </trkpt>
      <trkpt lat="45.78685" lon="5.79707">
        <ele>569</ele>
        <time>2026-07-14T12:09:26Z</time>
      </trkpt>
      <trkpt lat="45.7871" lon="5.79723">
        <ele>566</ele>
        <time>2026-07-14T12:10:03Z</time>
      </trkpt>
      <trkpt lat="45.7873" lon="5.79749">
        <ele>564</ele>
        <time>2026-07-14T12:10:39Z</time>
      </trkpt>
      <trkpt lat="45.78751" lon="5.79752">
        <ele>560</ele>
        <time>2026-07-14T12:11:07Z</time>
      </trkpt>
      <trkpt lat="45.78764" lon="5.79748">
        <ele>560</ele>
        <time>2026-07-14T12:11:25Z</time>
      </trkpt>
      <trkpt lat="45.78755" lon="5.79703">
        <ele>559</ele>
        <time>2026-07-14T12:12:08Z</time>
      </trkpt>
      <trkpt lat="45.78759" lon="5.79693">
        <ele>559</ele>
        <time>2026-07-14T12:12:19Z</time>
      </trkpt>
      <trkpt lat="45.78803" lon="5.79671">
        <ele>563</ele>
        <time>2026-07-14T12:13:21Z</time>
      </trkpt>
      <trkpt lat="45.78831" lon="5.7967">
        <ele>566</ele>
        <time>2026-07-14T12:13:58Z</time>
      </trkpt>
      <trkpt lat="45.78833" lon="5.79659">
        <ele>564</ele>
        <time>2026-07-14T12:14:09Z</time>
      </trkpt>
      <trkpt lat="45.78835" lon="5.7965">
        <ele>561</ele>
        <time>2026-07-14T12:14:18Z</time>
      </trkpt>
      <trkpt lat="45.78833" lon="5.79613">
        <ele>547</ele>
        <time>2026-07-14T12:14:52Z</time>
      </trkpt>
      <trkpt lat="45.78835" lon="5.7965">
        <ele>561</ele>
        <time>2026-07-14T12:15:27Z</time>
      </trkpt>
      <trkpt lat="45.78831" lon="5.7967">
        <ele>566</ele>
        <time>2026-07-14T12:15:46Z</time>
      </trkpt>
      <trkpt lat="45.78858" lon="5.79673">
        <ele>568</ele>
        <time>2026-07-14T12:16:22Z</time>
      </trkpt>
      <trkpt lat="45.7888" lon="5.79686">
        <ele>570</ele>
        <time>2026-07-14T12:16:54Z</time>
      </trkpt>
      <trkpt lat="45.78944" lon="5.79687">
        <ele>573</ele>
        <time>2026-07-14T12:18:20Z</time>
      </trkpt>
      <trkpt lat="45.78983" lon="5.7968">
        <ele>573</ele>
        <time>2026-07-14T12:19:12Z</time>
      </trkpt>
      <trkpt lat="45.7901" lon="5.7969">
        <ele>576</ele>
        <time>2026-07-14T12:19:49Z</time>
      </trkpt>
      <trkpt lat="45.79032" lon="5.79711">
        <ele>580</ele>
        <time>2026-07-14T12:20:24Z</time>
      </trkpt>
      <trkpt lat="45.79045" lon="5.79715">
        <ele>581</ele>
        <time>2026-07-14T12:20:42Z</time>
      </trkpt>
      <trkpt lat="45.79046" lon="5.79716">
        <ele>581</ele>
        <time>2026-07-14T12:20:44Z</time>
      </trkpt>
      <trkpt lat="45.79052" lon="5.79735">
        <ele>585</ele>
        <time>2026-07-14T12:21:03Z</time>
      </trkpt>
      <trkpt lat="45.79051" lon="5.79765">
        <ele>585</ele>
        <time>2026-07-14T12:21:31Z</time>
      </trkpt>
      <trkpt lat="45.79065" lon="5.79783">
        <ele>581</ele>
        <time>2026-07-14T12:21:56Z</time>
      </trkpt>
      <trkpt lat="45.79093" lon="5.79804">
        <ele>575</ele>
        <time>2026-07-14T12:22:38Z</time>
      </trkpt>
      <trkpt lat="45.79114" lon="5.79808">
        <ele>572</ele>
        <time>2026-07-14T12:23:07Z</time>
      </trkpt>
      <trkpt lat="45.79125" lon="5.79822">
        <ele>568</ele>
        <time>2026-07-14T12:23:26Z</time>
      </trkpt>
      <trkpt lat="45.79124" lon="5.79831">
        <ele>567</ele>
        <time>2026-07-14T12:23:35Z</time>
      </trkpt>
      <trkpt lat="45.7911" lon="5.79853">
        <ele>563</ele>
        <time>2026-07-14T12:24:03Z</time>
      </trkpt>
      <trkpt lat="45.79075" lon="5.79921">
        <ele>549</ele>
        <time>2026-07-14T12:25:21Z</time>
      </trkpt>
      <trkpt lat="45.79057" lon="5.79943">
        <ele>544</ele>
        <time>2026-07-14T12:25:53Z</time>
      </trkpt>
      <trkpt lat="45.79054" lon="5.79951">
        <ele>542</ele>
        <time>2026-07-14T12:26:01Z</time>
      </trkpt>
      <trkpt lat="45.79072" lon="5.7996">
        <ele>538</ele>
        <time>2026-07-14T12:26:27Z</time>
      </trkpt>
      <trkpt lat="45.79071" lon="5.79968">
        <ele>536</ele>
        <time>2026-07-14T12:26:34Z</time>
      </trkpt>
      <trkpt lat="45.79057" lon="5.79981">
        <ele>533</ele>
        <time>2026-07-14T12:26:56Z</time>
      </trkpt>
      <trkpt lat="45.79039" lon="5.80002">
        <ele>528</ele>
        <time>2026-07-14T12:27:27Z</time>
      </trkpt>
      <trkpt lat="45.79036" lon="5.80009">
        <ele>526</ele>
        <time>2026-07-14T12:27:35Z</time>
      </trkpt>
      <trkpt lat="45.79048" lon="5.80013">
        <ele>525</ele>
        <time>2026-07-14T12:27:52Z</time>
      </trkpt>
      <trkpt lat="45.79103" lon="5.80041">
        <ele>516</ele>
        <time>2026-07-14T12:29:09Z</time>
      </trkpt>
      <trkpt lat="45.79119" lon="5.80057">
        <ele>512</ele>
        <time>2026-07-14T12:29:35Z</time>
      </trkpt>
      <trkpt lat="45.79117" lon="5.8008">
        <ele>506</ele>
        <time>2026-07-14T12:29:57Z</time>
      </trkpt>
      <trkpt lat="45.79088" lon="5.80105">
        <ele>504</ele>
        <time>2026-07-14T12:30:42Z</time>
      </trkpt>
      <trkpt lat="45.79068" lon="5.80145">
        <ele>500</ele>
        <time>2026-07-14T12:31:28Z</time>
      </trkpt>
      <trkpt lat="45.79086" lon="5.8017">
        <ele>495</ele>
        <time>2026-07-14T12:32:01Z</time>
      </trkpt>
      <trkpt lat="45.791" lon="5.80241">
        <ele>483</ele>
        <time>2026-07-14T12:33:10Z</time>
      </trkpt>
      <trkpt lat="45.79097" lon="5.80271">
        <ele>479</ele>
        <time>2026-07-14T12:33:38Z</time>
      </trkpt>
      <trkpt lat="45.79121" lon="5.80298">
        <ele>473</ele>
        <time>2026-07-14T12:34:19Z</time>
      </trkpt>
      <trkpt lat="45.79144" lon="5.80307">
        <ele>470</ele>
        <time>2026-07-14T12:34:51Z</time>
      </trkpt>
      <trkpt lat="45.79139" lon="5.80338">
        <ele>467</ele>
        <time>2026-07-14T12:35:20Z</time>
      </trkpt>
      <trkpt lat="45.79138" lon="5.80338">
        <ele>467</ele>
        <time>2026-07-14T12:35:22Z</time>
      </trkpt>
      <trkpt lat="45.79023" lon="5.8036">
        <ele>475</ele>
        <time>2026-07-14T12:37:57Z</time>
      </trkpt>
      <trkpt lat="45.79007" lon="5.80358">
        <ele>477</ele>
        <time>2026-07-14T12:38:18Z</time>
      </trkpt>
      <trkpt lat="45.78951" lon="5.80327">
        <ele>481</ele>
        <time>2026-07-14T12:39:38Z</time>
      </trkpt>
      <trkpt lat="45.78935" lon="5.8031">
        <ele>483</ele>
        <time>2026-07-14T12:40:05Z</time>
      </trkpt>
      <trkpt lat="45.78893" lon="5.80279">
        <ele>487</ele>
        <time>2026-07-14T12:41:08Z</time>
      </trkpt>
      <trkpt lat="45.78868" lon="5.80264">
        <ele>490</ele>
        <time>2026-07-14T12:41:44Z</time>
      </trkpt>
      <trkpt lat="45.78853" lon="5.80267">
        <ele>490</ele>
        <time>2026-07-14T12:42:04Z</time>
      </trkpt>
      <trkpt lat="45.78839" lon="5.80274">
        <ele>491</ele>
        <time>2026-07-14T12:42:24Z</time>
      </trkpt>
      <trkpt lat="45.78825" lon="5.80285">
        <ele>492</ele>
        <time>2026-07-14T12:42:45Z</time>
      </trkpt>
      <trkpt lat="45.78815" lon="5.8032">
        <ele>492</ele>
        <time>2026-07-14T12:43:20Z</time>
      </trkpt>
      <trkpt lat="45.78797" lon="5.80337">
        <ele>493</ele>
        <time>2026-07-14T12:43:49Z</time>
      </trkpt>
      <trkpt lat="45.78778" lon="5.8034">
        <ele>494</ele>
        <time>2026-07-14T12:44:15Z</time>
      </trkpt>
      <trkpt lat="45.78761" lon="5.80328">
        <ele>497</ele>
        <time>2026-07-14T12:44:40Z</time>
      </trkpt>
      <trkpt lat="45.78712" lon="5.80336">
        <ele>503</ele>
        <time>2026-07-14T12:45:46Z</time>
      </trkpt>
      <trkpt lat="45.78709" lon="5.80335">
        <ele>503</ele>
        <time>2026-07-14T12:45:50Z</time>
      </trkpt>
      <trkpt lat="45.78712" lon="5.80336">
        <ele>503</ele>
        <time>2026-07-14T12:45:54Z</time>
      </trkpt>
      <trkpt lat="45.78703" lon="5.80355">
        <ele>504</ele>
        <time>2026-07-14T12:46:15Z</time>
      </trkpt>
      <trkpt lat="45.78701" lon="5.80366">
        <ele>505</ele>
        <time>2026-07-14T12:46:26Z</time>
      </trkpt>
      <trkpt lat="45.787" lon="5.80428">
        <ele>506</ele>
        <time>2026-07-14T12:47:24Z</time>
      </trkpt>
      <trkpt lat="45.78705" lon="5.8044">
        <ele>505</ele>
        <time>2026-07-14T12:47:37Z</time>
      </trkpt>
      <trkpt lat="45.78714" lon="5.80481">
        <ele>504</ele>
        <time>2026-07-14T12:48:17Z</time>
      </trkpt>
      <trkpt lat="45.78733" lon="5.80527">
        <ele>500</ele>
        <time>2026-07-14T12:49:06Z</time>
      </trkpt>
      <trkpt lat="45.78743" lon="5.80564">
        <ele>500</ele>
        <time>2026-07-14T12:49:43Z</time>
      </trkpt>
      <trkpt lat="45.78743" lon="5.80584">
        <ele>502</ele>
        <time>2026-07-14T12:50:02Z</time>
      </trkpt>
      <trkpt lat="45.78738" lon="5.80606">
        <ele>503</ele>
        <time>2026-07-14T12:50:23Z</time>
      </trkpt>
      <trkpt lat="45.78721" lon="5.80634">
        <ele>506</ele>
        <time>2026-07-14T12:50:58Z</time>
      </trkpt>
      <trkpt lat="45.7872" lon="5.8065">
        <ele>506</ele>
        <time>2026-07-14T12:51:13Z</time>
      </trkpt>
      <trkpt lat="45.78726" lon="5.80674">
        <ele>504</ele>
        <time>2026-07-14T12:51:37Z</time>
      </trkpt>
      <trkpt lat="45.7873" lon="5.80682">
        <ele>503</ele>
        <time>2026-07-14T12:51:46Z</time>
      </trkpt>
      <trkpt lat="45.7874" lon="5.80691">
        <ele>502</ele>
        <time>2026-07-14T12:52:02Z</time>
      </trkpt>
      <trkpt lat="45.78779" lon="5.80713">
        <ele>496</ele>
        <time>2026-07-14T12:52:57Z</time>
      </trkpt>
      <trkpt lat="45.78794" lon="5.80718">
        <ele>495</ele>
        <time>2026-07-14T12:53:18Z</time>
      </trkpt>
      <trkpt lat="45.78838" lon="5.80747">
        <ele>490</ele>
        <time>2026-07-14T12:54:23Z</time>
      </trkpt>
      <trkpt lat="45.78821" lon="5.80816">
        <ele>478</ele>
        <time>2026-07-14T12:55:31Z</time>
      </trkpt>
      <trkpt lat="45.78813" lon="5.8083">
        <ele>476</ele>
        <time>2026-07-14T12:55:48Z</time>
      </trkpt>
      <trkpt lat="45.78796" lon="5.80844">
        <ele>473</ele>
        <time>2026-07-14T12:56:14Z</time>
      </trkpt>
      <trkpt lat="45.78784" lon="5.80858">
        <ele>471</ele>
        <time>2026-07-14T12:56:34Z</time>
      </trkpt>
      <trkpt lat="45.78759" lon="5.80871">
        <ele>468</ele>
        <time>2026-07-14T12:57:10Z</time>
      </trkpt>
      <trkpt lat="45.7874" lon="5.80877">
        <ele>466</ele>
        <time>2026-07-14T12:57:36Z</time>
      </trkpt>
      <trkpt lat="45.78709" lon="5.80882">
        <ele>463</ele>
        <time>2026-07-14T12:58:17Z</time>
      </trkpt>
      <trkpt lat="45.78678" lon="5.80896">
        <ele>458</ele>
        <time>2026-07-14T12:59:01Z</time>
      </trkpt>
      <trkpt lat="45.78662" lon="5.80897">
        <ele>456</ele>
        <time>2026-07-14T12:59:22Z</time>
      </trkpt>
      <trkpt lat="45.78646" lon="5.80904">
        <ele>454</ele>
        <time>2026-07-14T12:59:45Z</time>
      </trkpt>
      <trkpt lat="45.78623" lon="5.80903">
        <ele>453</ele>
        <time>2026-07-14T13:00:15Z</time>
      </trkpt>
      <trkpt lat="45.78611" lon="5.80905">
        <ele>452</ele>
        <time>2026-07-14T13:00:31Z</time>
      </trkpt>
      <trkpt lat="45.78582" lon="5.80923">
        <ele>447</ele>
        <time>2026-07-14T13:01:14Z</time>
      </trkpt>
      <trkpt lat="45.78562" lon="5.80928">
        <ele>447</ele>
        <time>2026-07-14T13:01:41Z</time>
      </trkpt>
      <trkpt lat="45.78545" lon="5.80929">
        <ele>447</ele>
        <time>2026-07-14T13:02:03Z</time>
      </trkpt>
      <trkpt lat="45.78532" lon="5.80938">
        <ele>446</ele>
        <time>2026-07-14T13:02:23Z</time>
      </trkpt>
      <trkpt lat="45.78524" lon="5.80949">
        <ele>444</ele>
        <time>2026-07-14T13:02:37Z</time>
      </trkpt>
      <trkpt lat="45.78517" lon="5.80977">
        <ele>439</ele>
        <time>2026-07-14T13:03:05Z</time>
      </trkpt>
      <trkpt lat="45.78507" lon="5.81005">
        <ele>434</ele>
        <time>2026-07-14T13:03:34Z</time>
      </trkpt>
      <trkpt lat="45.78492" lon="5.81095">
        <ele>419</ele>
        <time>2026-07-14T13:05:00Z</time>
      </trkpt>
      <trkpt lat="45.7849" lon="5.81171">
        <ele>409</ele>
        <time>2026-07-14T13:06:11Z</time>
      </trkpt>
      <trkpt lat="45.78486" lon="5.81229">
        <ele>403</ele>
        <time>2026-07-14T13:07:05Z</time>
      </trkpt>
      <trkpt lat="45.78488" lon="5.81254">
        <ele>400</ele>
        <time>2026-07-14T13:07:29Z</time>
      </trkpt>
      <trkpt lat="45.78492" lon="5.8127">
        <ele>398</ele>
        <time>2026-07-14T13:07:45Z</time>
      </trkpt>
      <trkpt lat="45.78505" lon="5.81285">
        <ele>396</ele>
        <time>2026-07-14T13:08:07Z</time>
      </trkpt>
      <trkpt lat="45.78514" lon="5.81302">
        <ele>394</ele>
        <time>2026-07-14T13:08:27Z</time>
      </trkpt>
      <trkpt lat="45.78524" lon="5.81346">
        <ele>389</ele>
        <time>2026-07-14T13:09:10Z</time>
      </trkpt>
      <trkpt lat="45.7853" lon="5.81389">
        <ele>385</ele>
        <time>2026-07-14T13:09:51Z</time>
      </trkpt>
      <trkpt lat="45.7853" lon="5.81447">
        <ele>381</ele>
        <time>2026-07-14T13:10:45Z</time>
      </trkpt>
      <trkpt lat="45.78534" lon="5.81496">
        <ele>378</ele>
        <time>2026-07-14T13:11:31Z</time>
      </trkpt>
      <trkpt lat="45.78533" lon="5.81517">
        <ele>376</ele>
        <time>2026-07-14T13:11:50Z</time>
      </trkpt>
      <trkpt lat="45.78533" lon="5.81521">
        <ele>376</ele>
        <time>2026-07-14T13:11:54Z</time>
      </trkpt>
      <trkpt lat="45.78533" lon="5.81517">
        <ele>376</ele>
        <time>2026-07-14T13:11:58Z</time>
      </trkpt>
      <trkpt lat="45.78516" lon="5.81514">
        <ele>376</ele>
        <time>2026-07-14T13:12:20Z</time>
      </trkpt>
      <trkpt lat="45.78353" lon="5.81539">
        <ele>379</ele>
        <time>2026-07-14T13:15:59Z</time>
      </trkpt>
      <trkpt lat="45.7832" lon="5.81537">
        <ele>380</ele>
        <time>2026-07-14T13:16:43Z</time>
      </trkpt>
      <trkpt lat="45.78294" lon="5.81533">
        <ele>381</ele>
        <time>2026-07-14T13:17:18Z</time>
      </trkpt>
      <trkpt lat="45.78266" lon="5.81535">
        <ele>383</ele>
        <time>2026-07-14T13:17:56Z</time>
      </trkpt>
      <trkpt lat="45.78225" lon="5.81551">
        <ele>383</ele>
        <time>2026-07-14T13:18:52Z</time>
      </trkpt>
      <trkpt lat="45.78177" lon="5.81567">
        <ele>384</ele>
        <time>2026-07-14T13:19:58Z</time>
      </trkpt>
      <trkpt lat="45.78051" lon="5.81603">
        <ele>382</ele>
        <time>2026-07-14T13:22:50Z</time>
      </trkpt>
      <trkpt lat="45.78037" lon="5.81605">
        <ele>382</ele>
        <time>2026-07-14T13:23:08Z</time>
      </trkpt>
      <trkpt lat="45.77976" lon="5.81583">
        <ele>381</ele>
        <time>2026-07-14T13:24:32Z</time>
      </trkpt>
      <trkpt lat="45.77967" lon="5.81581">
        <ele>381</ele>
        <time>2026-07-14T13:24:44Z</time>
      </trkpt>
      <trkpt lat="45.7796" lon="5.81584">
        <ele>381</ele>
        <time>2026-07-14T13:24:54Z</time>
      </trkpt>
      <trkpt lat="45.77954" lon="5.816">
        <ele>380</ele>
        <time>2026-07-14T13:25:11Z</time>
      </trkpt>
      <trkpt lat="45.77902" lon="5.81556">
        <ele>381</ele>
        <time>2026-07-14T13:26:32Z</time>
      </trkpt>
      <trkpt lat="45.77888" lon="5.81546">
        <ele>381</ele>
        <time>2026-07-14T13:26:53Z</time>
      </trkpt>
      <trkpt lat="45.77774" lon="5.81502">
        <ele>383</ele>
        <time>2026-07-14T13:29:30Z</time>
      </trkpt>
      <trkpt lat="45.77709" lon="5.81481">
        <ele>385</ele>
        <time>2026-07-14T13:30:59Z</time>
      </trkpt>
    </trkseg>
  </trk>
</gpx>